sensor_id;sensor_type;location;lat;lon;timestamp;pressure;altitude;pressure_sealevel;temperature;humidity
929;BME280;451;47.988;7.842;2022-10-04T00:03:27;98687.72;;;6.56;100.00
929;BME280;451;47.988;7.842;2022-10-04T00:12:39;99168.22;;;9.57;100.00
929;BME280;451;47.988;7.842;2022-10-04T00:31:20;99161.44;;;9.37;100.00
929;BME280;451;47.988;7.842;2022-10-04T00:40:25;99150.28;;;9.52;100.00
929;BME280;451;47.988;7.842;2022-10-04T00:49:32;98833.56;;;7.64;100.00
929;BME280;451;47.988;7.842;2022-10-04T01:08:11;99144.75;;;9.55;100.00
929;BME280;451;47.988;7.842;2022-10-04T01:17:14;99161.97;;;9.40;100.00
929;BME280;451;47.988;7.842;2022-10-04T01:35:30;99080.47;;;8.40;100.00
929;BME280;451;47.988;7.842;2022-10-04T01:44:57;99094.66;;;8.28;100.00
929;BME280;451;47.988;7.842;2022-10-04T01:54:13;99034.91;;;8.61;100.00
929;BME280;451;47.988;7.842;2022-10-04T02:03:22;99090.53;;;8.92;100.00
929;BME280;451;47.988;7.842;2022-10-04T02:12:28;99122.63;;;8.66;100.00
929;BME280;451;47.988;7.842;2022-10-04T02:21:34;99060.94;;;8.72;100.00
929;BME280;451;47.988;7.842;2022-10-04T02:30:38;99158.88;;;6.95;100.00
929;BME280;451;47.988;7.842;2022-10-04T02:39:44;98855.53;;;7.81;100.00
929;BME280;451;47.988;7.842;2022-10-04T02:48:53;98738.25;;;6.83;100.00
929;BME280;451;47.988;7.842;2022-10-04T02:57:57;99040.38;;;8.30;100.00
929;BME280;451;47.988;7.842;2022-10-04T03:07:01;99158.06;;;9.17;100.00
929;BME280;451;47.988;7.842;2022-10-04T03:16:05;98778.00;;;6.77;100.00
929;BME280;451;47.988;7.842;2022-10-04T03:25:11;99069.72;;;9.17;100.00
929;BME280;451;47.988;7.842;2022-10-04T03:34:19;99032.28;;;9.15;100.00
929;BME280;451;47.988;7.842;2022-10-04T03:43:27;98956.38;;;8.69;100.00
929;BME280;451;47.988;7.842;2022-10-04T03:52:34;99084.75;;;9.43;100.00
929;BME280;451;47.988;7.842;2022-10-04T04:01:55;98818.94;;;7.25;100.00
929;BME280;451;47.988;7.842;2022-10-04T04:11:03;99095.50;;;9.22;100.00
929;BME280;451;47.988;7.842;2022-10-04T04:20:16;99100.03;;;9.20;100.00
929;BME280;451;47.988;7.842;2022-10-04T04:38:29;98909.47;;;7.55;100.00
929;BME280;451;47.988;7.842;2022-10-04T04:47:42;99038.69;;;8.39;100.00
929;BME280;451;47.988;7.842;2022-10-04T04:56:47;98989.94;;;8.09;100.00
929;BME280;451;47.988;7.842;2022-10-04T05:05:52;99100.38;;;8.70;100.00
929;BME280;451;47.988;7.842;2022-10-04T05:14:55;98916.50;;;7.35;100.00
929;BME280;451;47.988;7.842;2022-10-04T05:24:05;99103.88;;;8.52;100.00
929;BME280;451;47.988;7.842;2022-10-04T05:33:12;99096.28;;;8.58;100.00
929;BME280;451;47.988;7.842;2022-10-04T05:42:20;99106.38;;;8.43;100.00
929;BME280;451;47.988;7.842;2022-10-04T05:51:29;98916.47;;;7.74;100.00
929;BME280;451;47.988;7.842;2022-10-04T06:00:46;99084.00;;;8.96;100.00
929;BME280;451;47.988;7.842;2022-10-04T06:29:07;99021.63;;;8.35;100.00
929;BME280;451;47.988;7.842;2022-10-04T06:47:39;99132.81;;;10.41;100.00
929;BME280;451;47.988;7.842;2022-10-04T07:06:06;99084.44;;;11.20;100.00
929;BME280;451;47.988;7.842;2022-10-04T07:15:24;99110.28;;;11.75;100.00
929;BME280;451;47.988;7.842;2022-10-04T07:24:55;99148.97;;;11.32;100.00
929;BME280;451;47.988;7.842;2022-10-04T07:34:03;99141.97;;;11.99;100.00
929;BME280;451;47.988;7.842;2022-10-04T07:43:20;98949.25;;;10.29;100.00
929;BME280;451;47.988;7.842;2022-10-04T07:52:45;99144.13;;;12.28;100.00
929;BME280;451;47.988;7.842;2022-10-04T08:02:10;99146.88;;;12.99;100.00
929;BME280;451;47.988;7.842;2022-10-04T08:20:52;99135.94;;;13.57;100.00
929;BME280;451;47.988;7.842;2022-10-04T08:39:14;99122.97;;;14.01;100.00
929;BME280;451;47.988;7.842;2022-10-04T09:25:47;99092.66;;;14.72;100.00
929;BME280;451;47.988;7.842;2022-10-04T10:12:28;99120.59;;;15.04;100.00
929;BME280;451;47.988;7.842;2022-10-04T10:31:30;99112.19;;;15.15;100.00
929;BME280;451;47.988;7.842;2022-10-04T12:14:47;99040.38;;;17.82;100.00
929;BME280;451;47.988;7.842;2022-10-04T12:24:00;99029.72;;;17.82;96.54
929;BME280;451;47.988;7.842;2022-10-04T12:33:21;99029.78;;;18.22;98.45
929;BME280;451;47.988;7.842;2022-10-04T12:51:59;99025.66;;;18.59;93.65
929;BME280;451;47.988;7.842;2022-10-04T13:11:16;99017.88;;;18.57;92.27
929;BME280;451;47.988;7.842;2022-10-04T13:29:51;98663.31;;;16.67;86.76
929;BME280;451;47.988;7.842;2022-10-04T13:57:35;98997.88;;;18.99;84.76
929;BME280;451;47.988;7.842;2022-10-04T14:25:30;98992.94;;;19.09;88.21
929;BME280;451;47.988;7.842;2022-10-04T14:53:57;98906.56;;;19.17;82.81
929;BME280;451;47.988;7.842;2022-10-04T15:03:18;98935.34;;;19.71;77.71
929;BME280;451;47.988;7.842;2022-10-04T15:12:43;98778.59;;;18.61;75.31
929;BME280;451;47.988;7.842;2022-10-04T15:22:01;98832.44;;;19.01;76.30
929;BME280;451;47.988;7.842;2022-10-04T15:31:35;98944.66;;;19.87;77.19
929;BME280;451;47.988;7.842;2022-10-04T15:59:26;98997.84;;;19.82;77.37
929;BME280;451;47.988;7.842;2022-10-04T16:36:58;98963.44;;;17.74;100.00
929;BME280;451;47.988;7.842;2022-10-04T16:46:24;98888.16;;;16.67;100.00
929;BME280;451;47.988;7.842;2022-10-04T17:13:51;98880.34;;;15.62;100.00
929;BME280;451;47.988;7.842;2022-10-04T17:32:55;98969.91;;;15.09;100.00
929;BME280;451;47.988;7.842;2022-10-04T17:42:12;98988.06;;;15.12;100.00
929;BME280;451;47.988;7.842;2022-10-04T18:00:50;99017.16;;;14.76;100.00
929;BME280;451;47.988;7.842;2022-10-04T18:09:55;98934.13;;;14.48;100.00
929;BME280;451;47.988;7.842;2022-10-04T18:28:30;98997.44;;;14.64;100.00
929;BME280;451;47.988;7.842;2022-10-04T18:37:36;98988.94;;;14.39;100.00
929;BME280;451;47.988;7.842;2022-10-04T18:46:41;98674.06;;;11.74;100.00
929;BME280;451;47.988;7.842;2022-10-04T18:56:01;99001.06;;;13.96;100.00
929;BME280;451;47.988;7.842;2022-10-04T19:05:20;98753.00;;;12.21;100.00
929;BME280;451;47.988;7.842;2022-10-04T19:14:47;99010.84;;;13.73;100.00
929;BME280;451;47.988;7.842;2022-10-04T19:33:58;99038.44;;;13.48;100.00
929;BME280;451;47.988;7.842;2022-10-04T19:43:08;98513.72;;;10.06;100.00
929;BME280;451;47.988;7.842;2022-10-04T19:52:25;98266.81;;;8.47;100.00
929;BME280;451;47.988;7.842;2022-10-04T20:01:30;98910.31;;;12.28;100.00
929;BME280;451;47.988;7.842;2022-10-04T20:10:36;98987.97;;;12.73;100.00
929;BME280;451;47.988;7.842;2022-10-04T20:19:39;98765.34;;;11.26;100.00
929;BME280;451;47.988;7.842;2022-10-04T20:28:42;99024.34;;;12.22;100.00
929;BME280;451;47.988;7.842;2022-10-04T20:46:49;99126.50;;;12.61;100.00
929;BME280;451;47.988;7.842;2022-10-04T20:56:10;99107.03;;;12.45;100.00
929;BME280;451;47.988;7.842;2022-10-04T21:05:21;98980.41;;;11.90;100.00
929;BME280;451;47.988;7.842;2022-10-04T21:14:26;99067.47;;;12.45;100.00
929;BME280;451;47.988;7.842;2022-10-04T21:23:32;98848.56;;;10.95;100.00
929;BME280;451;47.988;7.842;2022-10-04T21:32:35;99088.72;;;12.44;100.00
929;BME280;451;47.988;7.842;2022-10-04T21:41:37;98876.50;;;10.79;100.00
929;BME280;451;47.988;7.842;2022-10-04T21:50:39;99035.25;;;11.87;100.00
929;BME280;451;47.988;7.842;2022-10-04T21:59:41;98960.44;;;11.39;100.00
929;BME280;451;47.988;7.842;2022-10-04T22:08:42;98979.66;;;11.15;100.00
929;BME280;451;47.988;7.842;2022-10-04T22:17:44;98925.19;;;10.91;100.00
929;BME280;451;47.988;7.842;2022-10-04T22:26:46;99018.69;;;11.36;100.00
929;BME280;451;47.988;7.842;2022-10-04T22:35:48;98922.25;;;11.19;100.00
929;BME280;451;47.988;7.842;2022-10-04T22:44:50;98917.81;;;11.19;100.00
929;BME280;451;47.988;7.842;2022-10-04T22:53:51;99019.56;;;11.61;100.00
929;BME280;451;47.988;7.842;2022-10-04T23:02:54;99069.81;;;12.00;100.00
929;BME280;451;47.988;7.842;2022-10-04T23:11:56;99042.47;;;11.77;100.00
929;BME280;451;47.988;7.842;2022-10-04T23:20:58;98858.97;;;10.46;100.00
929;BME280;451;47.988;7.842;2022-10-04T23:30:02;98806.53;;;9.94;100.00
929;BME280;451;47.988;7.842;2022-10-04T23:39:11;99011.94;;;11.42;100.00
929;BME280;451;47.988;7.842;2022-10-04T23:48:20;99068.03;;;11.34;100.00
929;BME280;451;47.988;7.842;2022-10-04T23:57:25;98995.53;;;10.89;100.00
